createdAt,value
2023-02-13T00:02:29.349Z,9.07
2023-02-13T00:07:35.034Z,8.93
2023-02-13T00:12:38.312Z,7.23
2023-02-13T00:17:41.741Z,7.03
2023-02-13T00:22:47.762Z,6.00
2023-02-13T00:27:54.307Z,6.27
2023-02-13T00:32:57.611Z,7.37
2023-02-13T00:38:02.247Z,9.30
2023-02-13T00:43:05.451Z,6.43
2023-02-13T00:48:08.753Z,5.67
2023-02-13T00:53:13.350Z,6.83
2023-02-13T00:58:17.795Z,6.00
2023-02-13T01:03:24.911Z,6.87
2023-02-13T01:08:30.679Z,6.60
2023-02-13T01:13:34.173Z,7.27
2023-02-13T01:18:37.524Z,7.10
2023-02-13T01:23:43.281Z,7.80
2023-02-13T01:28:48.656Z,8.43
2023-02-13T01:33:52.417Z,7.60
2023-02-13T01:39:07.276Z,8.67
2023-02-13T01:44:40.277Z,9.47
2023-02-13T01:49:47.714Z,8.87
2023-02-13T01:54:52.478Z,7.77
2023-02-13T02:00:02.154Z,8.03
2023-02-13T02:05:07.742Z,9.23
2023-02-13T02:10:17.084Z,8.47
2023-02-13T02:15:21.432Z,8.77
2023-02-13T02:20:43.798Z,9.23
2023-02-13T02:26:36.805Z,8.47
2023-02-13T02:32:03.832Z,10.50
2023-02-13T02:37:20.152Z,10.03
2023-02-13T02:42:31.609Z,10.13
2023-02-13T02:48:01.514Z,8.87
2023-02-13T02:53:13.344Z,8.50
2023-02-13T02:58:40.308Z,8.47
2023-02-13T03:04:02.955Z,8.40
2023-02-13T03:09:30.095Z,8.73
2023-02-13T03:14:33.507Z,10.60
2023-02-13T03:20:10.872Z,9.23
2023-02-13T03:25:30.461Z,10.03
2023-02-13T03:30:41.869Z,8.20
2023-02-13T03:36:08.704Z,8.50
2023-02-13T03:41:20.121Z,8.10
2023-02-13T03:46:25.448Z,8.67
2023-02-13T03:51:35.124Z,8.03
2023-02-13T03:57:00.080Z,8.33
2023-02-13T04:02:09.730Z,9.30
2023-02-13T04:07:29.685Z,7.40
2023-02-13T04:12:40.692Z,8.87
2023-02-13T04:17:48.372Z,9.37
2023-02-13T04:22:52.945Z,9.00
2023-02-13T04:27:56.260Z,10.07
2023-02-13T04:32:59.481Z,9.47
2023-02-13T04:38:04.592Z,8.57
2023-02-13T04:43:07.913Z,9.03
2023-02-13T04:48:11.528Z,9.07
2023-02-13T04:53:16.294Z,10.17
2023-02-13T04:58:19.632Z,10.63
2023-02-13T05:03:22.867Z,9.57
2023-02-13T05:08:27.445Z,9.77
2023-02-13T05:13:34.123Z,9.70
2023-02-13T05:18:37.457Z,9.97
2023-02-13T05:23:42.083Z,9.23
2023-02-13T05:29:14.669Z,8.87
2023-02-13T05:34:18.016Z,9.23
2023-02-13T05:39:23.236Z,9.43
2023-02-13T05:44:26.428Z,10.10
2023-02-13T05:49:29.667Z,9.00
2023-02-13T06:00:01.609Z,10.53
2023-02-13T06:05:04.937Z,10.40
2023-02-13T06:10:10.187Z,9.77
2023-02-13T06:15:13.426Z,9.37
2023-02-13T06:20:16.778Z,8.90
2023-02-13T06:25:21.801Z,7.97
2023-02-13T06:30:25.340Z,9.13
2023-02-13T06:35:28.867Z,11.27
2023-02-13T06:40:33.586Z,10.13
2023-02-13T06:45:38.148Z,9.40
2023-02-13T06:50:41.463Z,9.67
2023-02-13T06:55:46.155Z,9.87
2023-02-13T07:00:49.654Z,11.00
2023-02-13T07:05:52.928Z,11.10
2023-02-13T07:10:57.755Z,10.17
2023-02-13T07:16:02.504Z,11.20
2023-02-13T07:21:06.021Z,10.90
2023-02-13T07:26:13.303Z,10.93
2023-02-13T07:31:20.025Z,10.43
2023-02-13T07:36:23.251Z,9.23
2023-02-13T07:41:27.872Z,7.97
2023-02-13T07:46:31.313Z,10.07
2023-02-13T07:51:34.686Z,7.83
2023-02-13T07:56:39.414Z,9.00
2023-02-13T08:01:42.667Z,8.57
2023-02-13T08:06:45.925Z,8.47
2023-02-13T08:11:56.185Z,8.20
2023-02-13T08:17:00.720Z,8.87
2023-02-13T08:22:04.123Z,8.33
2023-02-13T08:27:12.480Z,9.03
2023-02-13T08:37:46.015Z,8.87
2023-02-13T08:42:51.803Z,8.37
2023-02-13T08:47:57.916Z,9.17
2023-02-13T08:53:01.288Z,8.40
2023-02-13T08:58:06.612Z,7.03
2023-02-13T09:03:10.456Z,6.78
2023-02-13T09:08:13.878Z,5.85
2023-02-13T09:13:18.476Z,5.53
2023-02-13T09:18:21.928Z,6.13
2023-02-13T09:23:25.229Z,5.93
2023-02-13T09:28:30.244Z,6.72
2023-02-13T09:33:33.528Z,6.15
2023-02-13T09:38:37.226Z,5.93
2023-02-13T09:43:47.394Z,7.35
2023-02-13T09:48:54.654Z,6.70
2023-02-13T09:54:01.512Z,7.45
2023-02-13T09:59:20.702Z,7.70
2023-02-13T10:04:31.557Z,7.35
2023-02-13T10:09:41.244Z,8.40
2023-02-13T10:14:54.625Z,9.32
2023-02-13T10:20:02.364Z,9.18
2023-02-13T10:25:13.001Z,9.38
2023-02-13T10:30:22.077Z,9.20
2023-02-13T10:35:30.840Z,8.38
2023-02-13T10:40:41.669Z,8.63
2023-02-13T10:46:00.757Z,8.35
2023-02-13T10:51:11.562Z,8.27
2023-02-13T10:56:27.249Z,9.93
2023-02-13T11:01:37.051Z,9.00
2023-02-13T11:06:44.207Z,9.10
2023-02-13T11:11:47.421Z,7.55
2023-02-13T11:16:59.099Z,8.52
2023-02-13T11:22:05.986Z,8.02
2023-02-13T11:27:13.895Z,8.95
2023-02-13T11:32:24.373Z,9.23
2023-02-13T11:37:29.970Z,8.65
2023-02-13T11:42:39.575Z,8.73
2023-02-13T11:53:30.589Z,7.35
2023-02-13T12:04:08.888Z,8.32
2023-02-13T12:09:15.579Z,7.80
2023-02-13T12:14:21.838Z,7.78
2023-02-13T12:19:32.809Z,7.18
2023-02-13T12:24:50.332Z,7.35
2023-02-13T12:30:21.493Z,7.25
2023-02-13T12:35:46.488Z,7.18
2023-02-13T12:41:06.087Z,7.03
2023-02-13T12:46:15.817Z,6.97
2023-02-13T12:51:37.781Z,8.60
2023-02-13T12:56:52.053Z,7.28
2023-02-13T13:02:29.082Z,8.57
2023-02-13T13:07:48.917Z,8.75
2023-02-13T13:12:59.348Z,7.97
2023-02-13T13:18:30.585Z,6.45
2023-02-13T13:23:39.423Z,7.18
2023-02-13T13:28:47.174Z,4.88
2023-02-13T13:33:50.485Z,5.28
2023-02-13T13:39:02.513Z,4.90
2023-02-13T13:44:17.212Z,5.05
2023-02-13T13:49:39.213Z,5.78
2023-02-13T13:54:46.549Z,5.35
2023-02-13T14:00:23.560Z,6.40
2023-02-13T14:05:29.723Z,5.70
2023-02-13T14:11:09.642Z,4.95
2023-02-13T14:16:34.212Z,5.05
2023-02-13T14:21:38.902Z,6.32
2023-02-13T14:26:42.730Z,5.53
2023-02-13T14:31:59.260Z,6.32
2023-02-13T14:37:29.857Z,5.47
2023-02-13T14:42:36.839Z,5.43
2023-02-13T14:47:43.161Z,5.90
2023-02-13T14:52:48.927Z,4.90
2023-02-13T14:57:55.023Z,5.05
2023-02-13T15:03:07.126Z,5.43
2023-02-13T15:08:16.502Z,5.15
2023-02-13T15:13:22.400Z,5.25
2023-02-13T15:18:29.362Z,4.95
2023-02-13T15:23:35.651Z,4.65
2023-02-13T15:28:38.958Z,5.25
2023-02-13T15:33:46.531Z,5.40
2023-02-13T15:38:51.359Z,5.30
2023-02-13T15:43:57.698Z,5.65
2023-02-13T15:49:05.900Z,6.40
2023-02-13T15:54:28.881Z,5.32
2023-02-13T15:59:35.850Z,5.47
2023-02-13T16:04:40.382Z,5.60
2023-02-13T16:09:45.197Z,6.13
2023-02-13T16:14:52.540Z,6.28
2023-02-13T16:19:59.920Z,6.25
2023-02-13T16:25:19.338Z,16.05
2023-02-13T16:30:40.882Z,7.20
2023-02-13T16:35:45.907Z,6.75
2023-02-13T16:40:50.588Z,7.32
2023-02-13T16:45:53.974Z,8.50
2023-02-13T16:50:57.654Z,7.60
2023-02-13T16:56:04.078Z,8.82
2023-02-13T17:01:11.048Z,9.63
2023-02-13T17:06:15.639Z,9.97
2023-02-13T17:11:20.715Z,9.87
2023-02-13T17:16:26.308Z,8.93
2023-02-13T17:21:29.568Z,9.47
2023-02-13T17:26:34.304Z,9.30
2023-02-13T17:31:42.013Z,8.07
2023-02-13T17:36:46.444Z,7.57
2023-02-13T17:41:51.221Z,8.97
2023-02-13T17:46:57.338Z,9.17
2023-02-13T17:52:03.934Z,9.17
2023-02-13T17:57:08.762Z,9.57
2023-02-13T18:02:16.545Z,8.60
2023-02-13T18:07:23.760Z,7.77
2023-02-13T18:12:29.063Z,8.40
2023-02-13T18:17:35.137Z,7.60
2023-02-13T18:22:40.471Z,7.27
2023-02-13T18:27:45.832Z,6.90
2023-02-13T18:32:53.465Z,6.93
2023-02-13T18:37:56.681Z,6.83
2023-02-13T18:43:01.491Z,6.70
2023-02-13T18:48:05.424Z,7.10
2023-02-13T18:53:09.278Z,6.83
2023-02-13T18:58:21.400Z,6.93
2023-02-13T19:03:29.050Z,7.60
2023-02-13T19:08:32.323Z,8.83
2023-02-13T19:13:37.479Z,8.03
2023-02-13T19:18:41.825Z,8.80
2023-02-13T19:23:45.228Z,8.27
2023-02-13T19:28:56.303Z,8.83
2023-02-13T19:34:07.046Z,9.40
2023-02-13T19:39:13.119Z,9.10
2023-02-13T19:44:17.803Z,9.67
2023-02-13T19:49:23.275Z,9.13
2023-02-13T19:54:26.539Z,9.43
2023-02-13T19:59:32.631Z,8.67
2023-02-13T20:04:36.986Z,8.13
2023-02-13T20:09:41.055Z,7.40
2023-02-13T20:14:46.995Z,7.67
2023-02-13T20:19:51.473Z,7.27
2023-02-13T20:24:54.664Z,8.27
2023-02-13T20:30:06.559Z,9.93
2023-02-13T20:35:10.645Z,9.80
2023-02-13T20:40:15.578Z,9.90
2023-02-13T20:45:24.186Z,9.53
2023-02-13T20:50:27.630Z,10.07
2023-02-13T20:55:36.269Z,9.87
2023-02-13T21:00:41.552Z,9.57
2023-02-13T21:06:05.234Z,8.43
2023-02-13T21:11:15.320Z,9.13
2023-02-13T21:16:22.286Z,9.23
2023-02-13T21:21:28.255Z,8.63
2023-02-13T21:26:32.447Z,8.70
2023-02-13T21:31:40.075Z,8.20
2023-02-13T21:36:46.461Z,7.30
2023-02-13T21:41:49.913Z,6.97
2023-02-13T21:46:55.726Z,7.73
2023-02-13T21:51:59.020Z,6.97
2023-02-13T21:57:02.343Z,7.37
2023-02-13T22:02:07.087Z,7.33
2023-02-13T22:07:10.474Z,6.90
2023-02-13T22:12:13.988Z,6.53
2023-02-13T22:17:20.858Z,6.57
2023-02-13T22:22:25.335Z,7.63
2023-02-13T22:27:28.630Z,7.77
2023-02-13T22:32:33.374Z,8.60
2023-02-13T22:37:37.244Z,7.63
2023-02-13T22:42:41.649Z,6.77
2023-02-13T22:47:46.471Z,6.77
2023-02-13T22:52:53.410Z,6.53
2023-02-13T22:57:58.886Z,7.37
2023-02-13T23:03:04.584Z,6.80
2023-02-13T23:08:08.188Z,7.20
2023-02-13T23:13:12.701Z,7.90
2023-02-13T23:18:18.164Z,6.13
2023-02-13T23:23:22.484Z,7.47
2023-02-13T23:28:25.754Z,6.63
2023-02-13T23:33:30.987Z,6.93
2023-02-13T23:38:34.321Z,6.70
2023-02-13T23:43:37.747Z,5.97
2023-02-13T23:48:42.502Z,7.60
2023-02-13T23:53:46.003Z,7.33
2023-02-13T23:58:49.455Z,7.83
